sensor_id;sensor_type;location;lat;lon;timestamp;temperature;humidity
25208;DHT22;13153;52.316;21.166;2022-10-13T00:01:47;8.50;99.90
25208;DHT22;13153;52.316;21.166;2022-10-13T00:04:13;8.50;99.90
25208;DHT22;13153;52.316;21.166;2022-10-13T00:06:38;8.50;99.90
25208;DHT22;13153;52.316;21.166;2022-10-13T00:09:04;8.50;99.90
25208;DHT22;13153;52.316;21.166;2022-10-13T00:11:30;8.40;99.90
25208;DHT22;13153;52.316;21.166;2022-10-13T00:13:59;8.50;99.90
25208;DHT22;13153;52.316;21.166;2022-10-13T00:16:29;8.40;99.90
25208;DHT22;13153;52.316;21.166;2022-10-13T00:18:56;8.40;99.90
25208;DHT22;13153;52.316;21.166;2022-10-13T00:21:24;8.40;99.90
25208;DHT22;13153;52.316;21.166;2022-10-13T00:23:52;8.40;99.90
25208;DHT22;13153;52.316;21.166;2022-10-13T00:26:21;8.30;99.90
25208;DHT22;13153;52.316;21.166;2022-10-13T00:28:49;8.30;99.90
25208;DHT22;13153;52.316;21.166;2022-10-13T00:31:27;8.30;99.90
25208;DHT22;13153;52.316;21.166;2022-10-13T00:33:56;8.30;99.90
25208;DHT22;13153;52.316;21.166;2022-10-13T00:36:23;8.20;99.90
25208;DHT22;13153;52.316;21.166;2022-10-13T00:38:50;8.20;99.90
25208;DHT22;13153;52.316;21.166;2022-10-13T00:41:17;8.20;99.90
25208;DHT22;13153;52.316;21.166;2022-10-13T00:46:16;8.10;99.90
25208;DHT22;13153;52.316;21.166;2022-10-13T00:48:42;8.10;99.90
25208;DHT22;13153;52.316;21.166;2022-10-13T00:51:10;8.00;99.90
25208;DHT22;13153;52.316;21.166;2022-10-13T00:53:39;8.00;99.90
25208;DHT22;13153;52.316;21.166;2022-10-13T00:56:07;8.00;99.90
25208;DHT22;13153;52.316;21.166;2022-10-13T00:58:37;8.00;99.90
25208;DHT22;13153;52.316;21.166;2022-10-13T01:01:05;8.00;99.90
25208;DHT22;13153;52.316;21.166;2022-10-13T01:03:31;7.90;99.90
25208;DHT22;13153;52.316;21.166;2022-10-13T01:06:00;7.80;99.90
25208;DHT22;13153;52.316;21.166;2022-10-13T01:08:28;7.70;99.90
25208;DHT22;13153;52.316;21.166;2022-10-13T01:13:59;7.70;99.90
25208;DHT22;13153;52.316;21.166;2022-10-13T01:16:48;7.70;99.90
25208;DHT22;13153;52.316;21.166;2022-10-13T01:22:46;7.60;99.90
25208;DHT22;13153;52.316;21.166;2022-10-13T01:31:19;7.40;99.90
25208;DHT22;13153;52.316;21.166;2022-10-13T01:34:23;7.40;99.90
25208;DHT22;13153;52.316;21.166;2022-10-13T01:37:31;7.40;99.90
25208;DHT22;13153;52.316;21.166;2022-10-13T01:40:14;7.40;99.90
25208;DHT22;13153;52.316;21.166;2022-10-13T01:43:03;7.30;99.90
25208;DHT22;13153;52.316;21.166;2022-10-13T01:45:39;7.30;99.90
25208;DHT22;13153;52.316;21.166;2022-10-13T01:48:12;7.30;99.90
25208;DHT22;13153;52.316;21.166;2022-10-13T01:50:41;7.30;99.90
25208;DHT22;13153;52.316;21.166;2022-10-13T01:53:09;7.30;99.90
25208;DHT22;13153;52.316;21.166;2022-10-13T01:55:51;7.20;99.90
25208;DHT22;13153;52.316;21.166;2022-10-13T01:58:20;7.20;99.90
25208;DHT22;13153;52.316;21.166;2022-10-13T02:03:47;7.10;99.90
25208;DHT22;13153;52.316;21.166;2022-10-13T02:12:23;7.10;99.90
25208;DHT22;13153;52.316;21.166;2022-10-13T02:15:08;7.00;99.90
25208;DHT22;13153;52.316;21.166;2022-10-13T02:17:40;7.00;99.90
25208;DHT22;13153;52.316;21.166;2022-10-13T02:20:07;7.00;99.90
25208;DHT22;13153;52.316;21.166;2022-10-13T02:22:39;7.00;99.90
25208;DHT22;13153;52.316;21.166;2022-10-13T02:25:08;7.00;99.90
25208;DHT22;13153;52.316;21.166;2022-10-13T02:27:34;7.00;99.90
25208;DHT22;13153;52.316;21.166;2022-10-13T02:30:00;6.90;99.90
25208;DHT22;13153;52.316;21.166;2022-10-13T02:32:26;6.90;99.90
25208;DHT22;13153;52.316;21.166;2022-10-13T02:34:52;6.90;99.90
25208;DHT22;13153;52.316;21.166;2022-10-13T02:37:18;6.90;99.90
25208;DHT22;13153;52.316;21.166;2022-10-13T02:39:43;6.90;99.90
25208;DHT22;13153;52.316;21.166;2022-10-13T02:42:09;6.90;99.90
25208;DHT22;13153;52.316;21.166;2022-10-13T02:44:35;6.90;99.90
25208;DHT22;13153;52.316;21.166;2022-10-13T02:47:01;6.80;99.90
25208;DHT22;13153;52.316;21.166;2022-10-13T02:49:27;6.80;99.90
25208;DHT22;13153;52.316;21.166;2022-10-13T02:51:53;6.80;99.90
25208;DHT22;13153;52.316;21.166;2022-10-13T02:54:19;6.80;99.90
25208;DHT22;13153;52.316;21.166;2022-10-13T02:56:44;6.80;99.90
25208;DHT22;13153;52.316;21.166;2022-10-13T02:59:10;6.70;99.90
25208;DHT22;13153;52.316;21.166;2022-10-13T03:01:36;6.70;99.90
25208;DHT22;13153;52.316;21.166;2022-10-13T03:04:09;6.70;99.90
25208;DHT22;13153;52.316;21.166;2022-10-13T03:06:36;6.70;99.90
25208;DHT22;13153;52.316;21.166;2022-10-13T03:09:02;6.70;99.90
25208;DHT22;13153;52.316;21.166;2022-10-13T03:11:28;6.60;99.90
25208;DHT22;13153;52.316;21.166;2022-10-13T03:13:55;6.60;99.90
25208;DHT22;13153;52.316;21.166;2022-10-13T03:16:21;6.60;99.90
25208;DHT22;13153;52.316;21.166;2022-10-13T03:18:47;6.50;99.90
25208;DHT22;13153;52.316;21.166;2022-10-13T03:21:13;6.50;99.90
25208;DHT22;13153;52.316;21.166;2022-10-13T03:23:39;6.50;99.90
25208;DHT22;13153;52.316;21.166;2022-10-13T03:26:04;6.40;99.90
25208;DHT22;13153;52.316;21.166;2022-10-13T03:28:30;6.40;99.90
25208;DHT22;13153;52.316;21.166;2022-10-13T03:31:07;6.40;99.90
25208;DHT22;13153;52.316;21.166;2022-10-13T03:33:35;6.30;99.90
25208;DHT22;13153;52.316;21.166;2022-10-13T03:36:02;6.30;99.90
25208;DHT22;13153;52.316;21.166;2022-10-13T03:38:31;6.20;99.90
25208;DHT22;13153;52.316;21.166;2022-10-13T03:41:10;6.20;99.90
25208;DHT22;13153;52.316;21.166;2022-10-13T03:43:39;6.20;99.90
25208;DHT22;13153;52.316;21.166;2022-10-13T03:46:06;6.10;99.90
25208;DHT22;13153;52.316;21.166;2022-10-13T03:48:34;6.00;99.90
25208;DHT22;13153;52.316;21.166;2022-10-13T03:51:08;5.90;99.90
25208;DHT22;13153;52.316;21.166;2022-10-13T03:53:39;5.80;99.90
25208;DHT22;13153;52.316;21.166;2022-10-13T03:56:05;5.90;99.90
25208;DHT22;13153;52.316;21.166;2022-10-13T03:58:33;5.90;99.90
25208;DHT22;13153;52.316;21.166;2022-10-13T04:01:04;5.90;99.90
25208;DHT22;13153;52.316;21.166;2022-10-13T04:03:32;5.90;99.90
25208;DHT22;13153;52.316;21.166;2022-10-13T04:06:02;5.90;99.90
25208;DHT22;13153;52.316;21.166;2022-10-13T04:08:30;5.80;99.90
25208;DHT22;13153;52.316;21.166;2022-10-13T04:11:07;5.80;99.90
25208;DHT22;13153;52.316;21.166;2022-10-13T04:13:35;5.80;99.90
25208;DHT22;13153;52.316;21.166;2022-10-13T04:16:02;5.70;99.90
25208;DHT22;13153;52.316;21.166;2022-10-13T04:18:30;5.80;99.90
25208;DHT22;13153;52.316;21.166;2022-10-13T04:20:56;5.80;99.90
25208;DHT22;13153;52.316;21.166;2022-10-13T04:23:22;5.80;99.90
25208;DHT22;13153;52.316;21.166;2022-10-13T04:25:48;5.80;99.90
25208;DHT22;13153;52.316;21.166;2022-10-13T04:28:14;5.80;99.90
25208;DHT22;13153;52.316;21.166;2022-10-13T04:30:40;5.80;99.90
25208;DHT22;13153;52.316;21.166;2022-10-13T04:33:06;5.80;99.90
25208;DHT22;13153;52.316;21.166;2022-10-13T04:35:33;5.80;99.90
25208;DHT22;13153;52.316;21.166;2022-10-13T04:37:58;5.80;99.90
25208;DHT22;13153;52.316;21.166;2022-10-13T04:40:25;5.90;99.90
25208;DHT22;13153;52.316;21.166;2022-10-13T04:42:52;5.80;99.90
25208;DHT22;13153;52.316;21.166;2022-10-13T04:45:17;5.80;99.90
25208;DHT22;13153;52.316;21.166;2022-10-13T04:47:43;5.90;99.90
25208;DHT22;13153;52.316;21.166;2022-10-13T04:50:09;5.80;99.90
25208;DHT22;13153;52.316;21.166;2022-10-13T04:52:35;5.80;99.90
25208;DHT22;13153;52.316;21.166;2022-10-13T04:55:01;5.80;99.90
25208;DHT22;13153;52.316;21.166;2022-10-13T04:57:27;5.80;99.90
25208;DHT22;13153;52.316;21.166;2022-10-13T04:59:53;5.80;99.90
25208;DHT22;13153;52.316;21.166;2022-10-13T05:02:19;5.80;99.90
25208;DHT22;13153;52.316;21.166;2022-10-13T05:04:45;5.80;99.90
25208;DHT22;13153;52.316;21.166;2022-10-13T05:07:11;5.80;99.90
25208;DHT22;13153;52.316;21.166;2022-10-13T05:09:36;5.70;99.90
25208;DHT22;13153;52.316;21.166;2022-10-13T05:12:02;5.80;99.90
25208;DHT22;13153;52.316;21.166;2022-10-13T05:14:28;5.80;99.90
25208;DHT22;13153;52.316;21.166;2022-10-13T05:16:56;5.90;99.90
25208;DHT22;13153;52.316;21.166;2022-10-13T05:19:22;5.90;99.90
25208;DHT22;13153;52.316;21.166;2022-10-13T05:21:47;5.90;99.90
25208;DHT22;13153;52.316;21.166;2022-10-13T05:24:13;6.00;99.90
25208;DHT22;13153;52.316;21.166;2022-10-13T05:26:40;6.10;99.90
25208;DHT22;13153;52.316;21.166;2022-10-13T05:29:07;6.20;99.90
25208;DHT22;13153;52.316;21.166;2022-10-13T05:31:35;6.50;99.90
25208;DHT22;13153;52.316;21.166;2022-10-13T05:34:01;6.80;99.90
25208;DHT22;13153;52.316;21.166;2022-10-13T05:36:30;7.00;99.90
25208;DHT22;13153;52.316;21.166;2022-10-13T05:38:59;7.30;99.90
25208;DHT22;13153;52.316;21.166;2022-10-13T05:41:28;7.60;99.90
25208;DHT22;13153;52.316;21.166;2022-10-13T05:44:00;7.90;99.90
25208;DHT22;13153;52.316;21.166;2022-10-13T05:46:28;8.20;99.90
25208;DHT22;13153;52.316;21.166;2022-10-13T05:48:54;8.50;99.90
25208;DHT22;13153;52.316;21.166;2022-10-13T05:51:25;8.70;99.90
25208;DHT22;13153;52.316;21.166;2022-10-13T05:54:21;9.10;99.90
25208;DHT22;13153;52.316;21.166;2022-10-13T05:57:11;9.20;99.90
25208;DHT22;13153;52.316;21.166;2022-10-13T05:59:57;9.60;99.90
25208;DHT22;13153;52.316;21.166;2022-10-13T06:02:31;9.80;99.90
25208;DHT22;13153;52.316;21.166;2022-10-13T06:05:03;10.10;99.90
25208;DHT22;13153;52.316;21.166;2022-10-13T06:07:31;10.30;99.90
25208;DHT22;13153;52.316;21.166;2022-10-13T06:09:57;10.50;99.90
25208;DHT22;13153;52.316;21.166;2022-10-13T06:12:24;10.60;99.90
25208;DHT22;13153;52.316;21.166;2022-10-13T06:14:50;10.90;99.90
25208;DHT22;13153;52.316;21.166;2022-10-13T06:17:15;11.00;99.90
25208;DHT22;13153;52.316;21.166;2022-10-13T06:19:41;11.20;99.90
25208;DHT22;13153;52.316;21.166;2022-10-13T06:22:08;11.40;99.90
25208;DHT22;13153;52.316;21.166;2022-10-13T06:24:33;11.70;99.90
25208;DHT22;13153;52.316;21.166;2022-10-13T06:26:59;11.90;99.90
25208;DHT22;13153;52.316;21.166;2022-10-13T06:29:25;12.10;99.90
25208;DHT22;13153;52.316;21.166;2022-10-13T06:31:51;12.30;99.90
25208;DHT22;13153;52.316;21.166;2022-10-13T06:34:16;12.40;99.90
25208;DHT22;13153;52.316;21.166;2022-10-13T06:36:42;12.70;99.90
25208;DHT22;13153;52.316;21.166;2022-10-13T06:39:08;12.80;99.90
25208;DHT22;13153;52.316;21.166;2022-10-13T06:41:35;12.90;99.90
25208;DHT22;13153;52.316;21.166;2022-10-13T06:44:00;13.00;99.90
25208;DHT22;13153;52.316;21.166;2022-10-13T06:46:26;13.00;99.90
25208;DHT22;13153;52.316;21.166;2022-10-13T06:48:52;13.10;99.90
25208;DHT22;13153;52.316;21.166;2022-10-13T06:51:18;13.10;99.90
25208;DHT22;13153;52.316;21.166;2022-10-13T06:53:44;13.00;99.90
25208;DHT22;13153;52.316;21.166;2022-10-13T06:56:10;13.00;99.90
25208;DHT22;13153;52.316;21.166;2022-10-13T06:58:36;13.10;99.90
25208;DHT22;13153;52.316;21.166;2022-10-13T07:01:03;13.10;99.90
25208;DHT22;13153;52.316;21.166;2022-10-13T07:03:30;13.30;99.90
25208;DHT22;13153;52.316;21.166;2022-10-13T07:06:03;13.40;99.90
25208;DHT22;13153;52.316;21.166;2022-10-13T07:08:30;13.50;99.90
25208;DHT22;13153;52.316;21.166;2022-10-13T07:10:57;13.40;99.90
25208;DHT22;13153;52.316;21.166;2022-10-13T07:13:23;13.40;99.90
25208;DHT22;13153;52.316;21.166;2022-10-13T07:15:49;13.40;99.90
25208;DHT22;13153;52.316;21.166;2022-10-13T07:18:15;13.60;99.90
25208;DHT22;13153;52.316;21.166;2022-10-13T07:20:41;13.70;99.90
25208;DHT22;13153;52.316;21.166;2022-10-13T07:23:06;13.80;99.90
25208;DHT22;13153;52.316;21.166;2022-10-13T07:25:32;14.00;99.90
25208;DHT22;13153;52.316;21.166;2022-10-13T07:27:58;14.20;99.90
25208;DHT22;13153;52.316;21.166;2022-10-13T07:30:25;14.30;99.90
25208;DHT22;13153;52.316;21.166;2022-10-13T07:32:51;14.50;99.90
25208;DHT22;13153;52.316;21.166;2022-10-13T07:35:17;14.50;99.90
25208;DHT22;13153;52.316;21.166;2022-10-13T07:37:43;14.70;99.90
25208;DHT22;13153;52.316;21.166;2022-10-13T07:40:09;14.70;99.90
25208;DHT22;13153;52.316;21.166;2022-10-13T07:42:35;14.60;99.90
25208;DHT22;13153;52.316;21.166;2022-10-13T07:45:01;14.60;99.90
25208;DHT22;13153;52.316;21.166;2022-10-13T07:47:27;14.50;99.90
25208;DHT22;13153;52.316;21.166;2022-10-13T07:49:53;14.60;99.90
25208;DHT22;13153;52.316;21.166;2022-10-13T07:52:20;14.60;99.90
25208;DHT22;13153;52.316;21.166;2022-10-13T07:54:46;14.70;99.90
25208;DHT22;13153;52.316;21.166;2022-10-13T07:57:12;14.70;99.90
25208;DHT22;13153;52.316;21.166;2022-10-13T07:59:38;14.70;99.90
25208;DHT22;13153;52.316;21.166;2022-10-13T08:02:04;14.70;99.90
25208;DHT22;13153;52.316;21.166;2022-10-13T08:04:30;14.80;99.90
25208;DHT22;13153;52.316;21.166;2022-10-13T08:06:57;15.00;99.90
25208;DHT22;13153;52.316;21.166;2022-10-13T08:09:24;15.10;99.90
25208;DHT22;13153;52.316;21.166;2022-10-13T08:11:50;15.10;99.90
25208;DHT22;13153;52.316;21.166;2022-10-13T08:14:16;15.20;99.90
25208;DHT22;13153;52.316;21.166;2022-10-13T08:16:42;15.10;99.90
25208;DHT22;13153;52.316;21.166;2022-10-13T08:19:13;15.10;99.90
25208;DHT22;13153;52.316;21.166;2022-10-13T08:21:40;15.10;99.90
25208;DHT22;13153;52.316;21.166;2022-10-13T08:24:09;15.20;99.90
25208;DHT22;13153;52.316;21.166;2022-10-13T08:26:37;15.40;99.90
25208;DHT22;13153;52.316;21.166;2022-10-13T08:29:03;15.40;99.90
25208;DHT22;13153;52.316;21.166;2022-10-13T08:31:29;15.40;99.90
25208;DHT22;13153;52.316;21.166;2022-10-13T08:33:55;15.50;99.90
25208;DHT22;13153;52.316;21.166;2022-10-13T08:36:21;15.60;99.90
25208;DHT22;13153;52.316;21.166;2022-10-13T08:38:47;15.60;99.90
25208;DHT22;13153;52.316;21.166;2022-10-13T08:41:20;15.70;99.90
25208;DHT22;13153;52.316;21.166;2022-10-13T08:44:02;15.90;99.90
25208;DHT22;13153;52.316;21.166;2022-10-13T08:46:51;16.00;99.90
25208;DHT22;13153;52.316;21.166;2022-10-13T08:49:39;16.10;99.90
25208;DHT22;13153;52.316;21.166;2022-10-13T08:52:24;16.20;99.90
25208;DHT22;13153;52.316;21.166;2022-10-13T08:54:53;16.30;99.90
25208;DHT22;13153;52.316;21.166;2022-10-13T08:57:21;16.40;99.90
25208;DHT22;13153;52.316;21.166;2022-10-13T08:59:47;16.30;99.90
25208;DHT22;13153;52.316;21.166;2022-10-13T09:02:28;16.20;99.90
25208;DHT22;13153;52.316;21.166;2022-10-13T09:04:58;16.10;99.90
25208;DHT22;13153;52.316;21.166;2022-10-13T09:07:31;16.10;99.90
25208;DHT22;13153;52.316;21.166;2022-10-13T09:10:01;16.00;99.90
25208;DHT22;13153;52.316;21.166;2022-10-13T09:12:27;16.00;99.90
25208;DHT22;13153;52.316;21.166;2022-10-13T09:15:07;16.00;99.90
25208;DHT22;13153;52.316;21.166;2022-10-13T09:17:38;16.00;99.90
25208;DHT22;13153;52.316;21.166;2022-10-13T09:20:23;15.90;99.90
25208;DHT22;13153;52.316;21.166;2022-10-13T09:23:04;15.80;99.90
25208;DHT22;13153;52.316;21.166;2022-10-13T09:25:40;15.70;99.90
25208;DHT22;13153;52.316;21.166;2022-10-13T09:28:28;15.60;99.90
25208;DHT22;13153;52.316;21.166;2022-10-13T09:33:44;15.60;99.90
25208;DHT22;13153;52.316;21.166;2022-10-13T09:36:13;15.60;99.90
25208;DHT22;13153;52.316;21.166;2022-10-13T09:38:43;15.60;99.90
25208;DHT22;13153;52.316;21.166;2022-10-13T09:41:29;15.70;99.90
25208;DHT22;13153;52.316;21.166;2022-10-13T09:43:59;15.80;99.90
25208;DHT22;13153;52.316;21.166;2022-10-13T09:46:45;15.80;99.90
25208;DHT22;13153;52.316;21.166;2022-10-13T09:49:32;15.80;99.90
25208;DHT22;13153;52.316;21.166;2022-10-13T09:54:47;15.90;99.90
25208;DHT22;13153;52.316;21.166;2022-10-13T09:57:44;15.80;99.90
25208;DHT22;13153;52.316;21.166;2022-10-13T10:00:18;15.70;99.90
25208;DHT22;13153;52.316;21.166;2022-10-13T10:03:28;15.60;99.90
25208;DHT22;13153;52.316;21.166;2022-10-13T10:06:03;15.60;99.90
25208;DHT22;13153;52.316;21.166;2022-10-13T10:08:53;15.60;99.90
25208;DHT22;13153;52.316;21.166;2022-10-13T10:11:29;15.50;99.90
25208;DHT22;13153;52.316;21.166;2022-10-13T10:14:35;15.50;99.90
25208;DHT22;13153;52.316;21.166;2022-10-13T10:26:01;15.50;99.90
25208;DHT22;13153;52.316;21.166;2022-10-13T10:28:55;15.50;99.90
25208;DHT22;13153;52.316;21.166;2022-10-13T10:37:52;15.00;99.90
25208;DHT22;13153;52.316;21.166;2022-10-13T10:46:35;14.70;99.90
25208;DHT22;13153;52.316;21.166;2022-10-13T10:49:32;14.70;99.90
25208;DHT22;13153;52.316;21.166;2022-10-13T10:52:05;14.70;99.90
25208;DHT22;13153;52.316;21.166;2022-10-13T10:54:50;14.70;99.90
25208;DHT22;13153;52.316;21.166;2022-10-13T11:00:52;14.80;99.90
25208;DHT22;13153;52.316;21.166;2022-10-13T11:03:35;14.90;99.90
25208;DHT22;13153;52.316;21.166;2022-10-13T11:13:58;14.90;99.90
25208;DHT22;13153;52.316;21.166;2022-10-13T11:19:39;14.80;99.90
25208;DHT22;13153;52.316;21.166;2022-10-13T11:22:15;14.80;99.90
25208;DHT22;13153;52.316;21.166;2022-10-13T11:24:48;14.70;99.90
25208;DHT22;13153;52.316;21.166;2022-10-13T11:30:00;14.60;99.90
25208;DHT22;13153;52.316;21.166;2022-10-13T11:41:04;14.60;99.90
25208;DHT22;13153;52.316;21.166;2022-10-13T11:44:06;14.70;99.90
25208;DHT22;13153;52.316;21.166;2022-10-13T11:55:18;14.60;99.90
25208;DHT22;13153;52.316;21.166;2022-10-13T11:58:11;14.60;99.90
25208;DHT22;13153;52.316;21.166;2022-10-13T12:00:59;14.60;99.90
25208;DHT22;13153;52.316;21.166;2022-10-13T12:03:44;14.60;99.90
25208;DHT22;13153;52.316;21.166;2022-10-13T12:06:29;14.60;99.90
25208;DHT22;13153;52.316;21.166;2022-10-13T12:09:18;14.60;99.90
25208;DHT22;13153;52.316;21.166;2022-10-13T12:11:54;14.60;99.90
25208;DHT22;13153;52.316;21.166;2022-10-13T12:14:36;14.60;99.90
25208;DHT22;13153;52.316;21.166;2022-10-13T12:19:51;14.60;99.90
25208;DHT22;13153;52.316;21.166;2022-10-13T12:22:18;14.70;99.90
25208;DHT22;13153;52.316;21.166;2022-10-13T12:25:00;14.70;99.90
25208;DHT22;13153;52.316;21.166;2022-10-13T12:27:30;14.60;99.90
25208;DHT22;13153;52.316;21.166;2022-10-13T12:29:58;14.60;99.90
25208;DHT22;13153;52.316;21.166;2022-10-13T12:32:28;14.60;99.90
25208;DHT22;13153;52.316;21.166;2022-10-13T12:35:22;14.60;99.90
25208;DHT22;13153;52.316;21.166;2022-10-13T12:37:52;14.60;99.90
25208;DHT22;13153;52.316;21.166;2022-10-13T12:40:21;14.70;99.90
25208;DHT22;13153;52.316;21.166;2022-10-13T12:42:49;14.60;99.90
25208;DHT22;13153;52.316;21.166;2022-10-13T12:45:17;14.60;99.90
25208;DHT22;13153;52.316;21.166;2022-10-13T12:53:16;14.70;99.90
25208;DHT22;13153;52.316;21.166;2022-10-13T12:55:58;14.70;99.90
25208;DHT22;13153;52.316;21.166;2022-10-13T13:03:40;14.70;99.90
25208;DHT22;13153;52.316;21.166;2022-10-13T13:08:41;14.70;99.90
25208;DHT22;13153;52.316;21.166;2022-10-13T13:11:37;14.70;99.90
25208;DHT22;13153;52.316;21.166;2022-10-13T13:17:09;14.70;99.90
25208;DHT22;13153;52.316;21.166;2022-10-13T13:19:40;14.70;99.90
25208;DHT22;13153;52.316;21.166;2022-10-13T13:22:07;14.70;99.90
25208;DHT22;13153;52.316;21.166;2022-10-13T13:24:34;14.70;99.90
25208;DHT22;13153;52.316;21.166;2022-10-13T13:27:24;14.60;99.90
25208;DHT22;13153;52.316;21.166;2022-10-13T13:29:53;14.60;99.90
25208;DHT22;13153;52.316;21.166;2022-10-13T13:32:21;14.60;99.90
25208;DHT22;13153;52.316;21.166;2022-10-13T13:34:49;14.60;99.90
25208;DHT22;13153;52.316;21.166;2022-10-13T13:37:34;14.60;99.90
25208;DHT22;13153;52.316;21.166;2022-10-13T13:40:05;14.60;99.90
25208;DHT22;13153;52.316;21.166;2022-10-13T13:42:32;14.60;99.90
25208;DHT22;13153;52.316;21.166;2022-10-13T13:44:58;14.50;99.90
25208;DHT22;13153;52.316;21.166;2022-10-13T13:47:26;14.50;99.90
25208;DHT22;13153;52.316;21.166;2022-10-13T13:49:54;14.50;99.90
25208;DHT22;13153;52.316;21.166;2022-10-13T13:52:22;14.50;99.90
25208;DHT22;13153;52.316;21.166;2022-10-13T13:54:49;14.50;99.90
25208;DHT22;13153;52.316;21.166;2022-10-13T13:57:16;14.50;99.90
25208;DHT22;13153;52.316;21.166;2022-10-13T13:59:43;14.50;99.90
25208;DHT22;13153;52.316;21.166;2022-10-13T14:02:16;14.50;99.90
25208;DHT22;13153;52.316;21.166;2022-10-13T14:04:45;14.60;99.90
25208;DHT22;13153;52.316;21.166;2022-10-13T14:07:12;14.60;99.90
25208;DHT22;13153;52.316;21.166;2022-10-13T14:09:38;14.60;99.90
25208;DHT22;13153;52.316;21.166;2022-10-13T14:12:04;14.50;99.90
25208;DHT22;13153;52.316;21.166;2022-10-13T14:14:31;14.60;99.90
25208;DHT22;13153;52.316;21.166;2022-10-13T14:16:58;14.60;99.90
25208;DHT22;13153;52.316;21.166;2022-10-13T14:19:25;14.60;99.90
25208;DHT22;13153;52.316;21.166;2022-10-13T14:21:51;14.60;99.90
25208;DHT22;13153;52.316;21.166;2022-10-13T14:24:18;14.60;99.90
25208;DHT22;13153;52.316;21.166;2022-10-13T14:26:44;14.50;99.90
25208;DHT22;13153;52.316;21.166;2022-10-13T14:29:10;14.50;99.90
25208;DHT22;13153;52.316;21.166;2022-10-13T14:31:36;14.50;99.90
25208;DHT22;13153;52.316;21.166;2022-10-13T14:34:02;14.50;99.90
25208;DHT22;13153;52.316;21.166;2022-10-13T14:36:27;14.50;99.90
25208;DHT22;13153;52.316;21.166;2022-10-13T14:38:53;14.50;99.90
25208;DHT22;13153;52.316;21.166;2022-10-13T14:41:19;14.40;99.90
25208;DHT22;13153;52.316;21.166;2022-10-13T14:43:45;14.40;99.90
25208;DHT22;13153;52.316;21.166;2022-10-13T14:46:12;14.40;99.90
25208;DHT22;13153;52.316;21.166;2022-10-13T14:48:38;14.40;99.90
25208;DHT22;13153;52.316;21.166;2022-10-13T14:51:05;14.30;99.90
25208;DHT22;13153;52.316;21.166;2022-10-13T14:53:33;14.30;99.90
25208;DHT22;13153;52.316;21.166;2022-10-13T14:56:00;14.30;99.90
25208;DHT22;13153;52.316;21.166;2022-10-13T14:58:27;14.30;99.90
25208;DHT22;13153;52.316;21.166;2022-10-13T15:00:53;14.20;99.90
25208;DHT22;13153;52.316;21.166;2022-10-13T15:03:21;14.20;99.90
25208;DHT22;13153;52.316;21.166;2022-10-13T15:05:48;14.20;99.90
25208;DHT22;13153;52.316;21.166;2022-10-13T15:08:16;14.20;99.90
25208;DHT22;13153;52.316;21.166;2022-10-13T15:10:41;14.20;99.90
25208;DHT22;13153;52.316;21.166;2022-10-13T15:13:09;14.10;99.90
25208;DHT22;13153;52.316;21.166;2022-10-13T15:15:35;14.10;99.90
25208;DHT22;13153;52.316;21.166;2022-10-13T15:18:01;14.10;99.90
25208;DHT22;13153;52.316;21.166;2022-10-13T15:20:27;14.10;99.90
25208;DHT22;13153;52.316;21.166;2022-10-13T15:22:53;14.10;99.90
25208;DHT22;13153;52.316;21.166;2022-10-13T15:25:19;14.10;99.90
25208;DHT22;13153;52.316;21.166;2022-10-13T15:27:45;14.00;99.90
25208;DHT22;13153;52.316;21.166;2022-10-13T15:30:11;14.00;99.90
25208;DHT22;13153;52.316;21.166;2022-10-13T15:32:37;14.00;99.90
25208;DHT22;13153;52.316;21.166;2022-10-13T15:35:03;13.90;99.90
25208;DHT22;13153;52.316;21.166;2022-10-13T15:37:30;13.90;99.90
25208;DHT22;13153;52.316;21.166;2022-10-13T15:39:56;13.80;99.90
25208;DHT22;13153;52.316;21.166;2022-10-13T15:42:22;13.80;99.90
25208;DHT22;13153;52.316;21.166;2022-10-13T15:44:47;13.70;99.90
25208;DHT22;13153;52.316;21.166;2022-10-13T15:47:13;13.70;99.90
25208;DHT22;13153;52.316;21.166;2022-10-13T15:49:39;13.60;99.90
25208;DHT22;13153;52.316;21.166;2022-10-13T15:52:05;13.50;99.90
25208;DHT22;13153;52.316;21.166;2022-10-13T15:54:31;13.50;99.90
25208;DHT22;13153;52.316;21.166;2022-10-13T15:56:56;13.40;99.90
25208;DHT22;13153;52.316;21.166;2022-10-13T15:59:22;13.30;99.90
25208;DHT22;13153;52.316;21.166;2022-10-13T16:01:49;13.20;99.90
25208;DHT22;13153;52.316;21.166;2022-10-13T16:04:15;13.20;99.90
25208;DHT22;13153;52.316;21.166;2022-10-13T16:06:41;13.20;99.90
25208;DHT22;13153;52.316;21.166;2022-10-13T16:09:07;13.10;99.90
25208;DHT22;13153;52.316;21.166;2022-10-13T16:11:32;13.00;99.90
25208;DHT22;13153;52.316;21.166;2022-10-13T16:13:58;12.90;99.90
25208;DHT22;13153;52.316;21.166;2022-10-13T16:16:24;12.90;99.90
25208;DHT22;13153;52.316;21.166;2022-10-13T16:18:52;12.80;99.90
25208;DHT22;13153;52.316;21.166;2022-10-13T16:21:24;12.70;99.90
25208;DHT22;13153;52.316;21.166;2022-10-13T16:23:50;12.70;99.90
25208;DHT22;13153;52.316;21.166;2022-10-13T16:26:19;12.60;99.90
25208;DHT22;13153;52.316;21.166;2022-10-13T16:28:45;12.60;99.90
25208;DHT22;13153;52.316;21.166;2022-10-13T16:31:13;12.50;99.90
25208;DHT22;13153;52.316;21.166;2022-10-13T16:33:42;12.50;99.90
25208;DHT22;13153;52.316;21.166;2022-10-13T16:36:12;12.40;99.90
25208;DHT22;13153;52.316;21.166;2022-10-13T16:38:43;12.40;99.90
25208;DHT22;13153;52.316;21.166;2022-10-13T16:41:15;12.40;99.90
25208;DHT22;13153;52.316;21.166;2022-10-13T16:43:43;12.30;99.90
25208;DHT22;13153;52.316;21.166;2022-10-13T16:46:12;12.20;99.90
25208;DHT22;13153;52.316;21.166;2022-10-13T16:48:40;12.10;99.90
25208;DHT22;13153;52.316;21.166;2022-10-13T16:51:11;12.00;99.90
25208;DHT22;13153;52.316;21.166;2022-10-13T16:53:38;12.00;99.90
25208;DHT22;13153;52.316;21.166;2022-10-13T16:56:06;12.00;99.90
25208;DHT22;13153;52.316;21.166;2022-10-13T16:58:32;11.90;99.90
25208;DHT22;13153;52.316;21.166;2022-10-13T17:01:04;11.90;99.90
25208;DHT22;13153;52.316;21.166;2022-10-13T17:03:36;11.90;99.90
25208;DHT22;13153;52.316;21.166;2022-10-13T17:06:03;11.80;99.90
25208;DHT22;13153;52.316;21.166;2022-10-13T17:08:30;11.70;99.90
25208;DHT22;13153;52.316;21.166;2022-10-13T17:10:58;11.60;99.90
25208;DHT22;13153;52.316;21.166;2022-10-13T17:13:24;11.50;99.90
25208;DHT22;13153;52.316;21.166;2022-10-13T17:15:55;11.40;99.90
25208;DHT22;13153;52.316;21.166;2022-10-13T17:18:22;11.40;99.90
25208;DHT22;13153;52.316;21.166;2022-10-13T17:20:59;11.30;99.90
25208;DHT22;13153;52.316;21.166;2022-10-13T17:23:30;11.30;99.90
25208;DHT22;13153;52.316;21.166;2022-10-13T17:26:01;11.30;99.90